Time;durP1;ratioP1;P1;durP2;ratioP2;P2;SDS_P1;SDS_P2;PMS_P1;PMS_P2;Temp;Humidity;BMP_temperature;BMP_pressure;BME280_temperature;BME280_humidity;BME280_pressure;Samples;Min_cycle;Max_cycle;Signal;HPM_P1;HPM_P2
2022/08/18 00:02:04;;;;;;;9.15;5.80;;;;;;;;;;4993400;28;20030;-81
2022/08/18 00:04:30;;;;;;;8.98;5.60;;;;;;;;;;4990304;28;20033;-81
2022/08/18 00:06:56;;;;;;;9.32;5.90;;;;;;;;;;4998664;28;20121;-82
2022/08/18 00:09:22;;;;;;;7.78;5.40;;;;;;;;;;5009458;28;20022;-81
2022/08/18 00:11:48;;;;;;;8.02;5.30;;;;;;;;;;5008044;28;20034;-82
2022/08/18 00:14:16;;;;;;;9.82;5.47;;;;;;;;;;5001165;28;20045;-82
2022/08/18 00:16:42;;;;;;;7.05;5.55;;;;;;;;;;4996098;28;20042;-82
2022/08/18 00:19:09;;;;;;;9.25;5.80;;;;;;;;;;5004520;28;20536;-82
2022/08/18 00:21:35;;;;;;;8.18;6.00;;;;;;;;;;5008987;28;20037;-82
2022/08/18 00:24:01;;;;;;;8.55;5.55;;;;;;;;;;5009380;28;20037;-81
2022/08/18 00:26:27;;;;;;;9.02;6.10;;;;;;;;;;5006169;28;20026;-82
2022/08/18 00:28:53;;;;;;;10.38;5.93;;;;;;;;;;5008054;28;20501;-81
2022/08/18 00:31:19;;;;;;;8.95;6.05;;;;;;;;;;5007897;28;20160;-81
2022/08/18 00:33:45;;;;;;;8.05;5.35;;;;;;;;;;5007336;28;20096;-81
2022/08/18 00:36:11;;;;;;;8.98;5.78;;;;;;;;;;5009391;28;20050;-81
2022/08/18 00:38:38;;;;;;;7.95;5.53;;;;;;;;;;4994928;28;20026;-82
2022/08/18 00:41:04;;;;;;;7.65;5.88;;;;;;;;;;5001120;28;20030;-81
2022/08/18 00:43:39;;;;;;;9.90;5.88;;;;;;;;;;5010144;28;20027;-82
2022/08/18 00:46:12;;;;;;;7.95;5.32;;;;;;;;;;5008447;28;20030;-81
2022/08/18 00:48:38;;;;;;;9.40;5.50;;;;;;;;;;5009466;28;20112;-81
2022/08/18 00:51:10;;;;;;;6.97;5.55;;;;;;;;;;5010514;28;20037;-81
2022/08/18 00:53:36;;;;;;;8.77;6.15;;;;;;;;;;5001527;28;20068;-81
2022/08/18 00:56:07;;;;;;;8.10;5.78;;;;;;;;;;5007195;28;20026;-82
2022/08/18 00:58:36;;;;;;;7.25;5.40;;;;;;;;;;5009977;28;20022;-82
2022/08/18 01:01:04;;;;;;;8.50;5.97;;;;;;;;;;5010095;28;20026;-82
2022/08/18 01:03:32;;;;;;;8.43;6.15;;;;;;;;;;5005925;28;20042;-81
2022/08/18 01:06:04;;;;;;;8.13;5.97;;;;;;;;;;5006144;28;20030;-82
2022/08/18 01:08:30;;;;;;;7.95;6.35;;;;;;;;;;5006053;28;20022;-81
2022/08/18 01:11:00;;;;;;;8.55;6.32;;;;;;;;;;5008712;28;20034;-82
2022/08/18 01:13:27;;;;;;;8.90;6.10;;;;;;;;;;5008057;28;20033;-82
2022/08/18 01:15:54;;;;;;;7.95;6.15;;;;;;;;;;5010303;28;20227;-81
2022/08/18 01:23:52;;;;;;;8.32;5.70;;;;;;;;;;5007254;28;20141;-82
2022/08/18 01:26:20;;;;;;;7.82;5.82;;;;;;;;;;5009805;28;20030;-81
2022/08/18 01:28:48;;;;;;;9.43;6.05;;;;;;;;;;5010241;28;20054;-81
2022/08/18 01:31:28;;;;;;;8.27;5.82;;;;;;;;;;5008054;28;20037;-81
2022/08/18 01:33:56;;;;;;;7.35;5.63;;;;;;;;;;4999850;28;20038;-81
2022/08/18 01:36:22;;;;;;;7.60;5.75;;;;;;;;;;4993867;28;20056;-82
2022/08/18 01:38:50;;;;;;;8.88;6.63;;;;;;;;;;5010422;28;20015;-82
2022/08/18 01:41:18;;;;;;;9.02;6.22;;;;;;;;;;4998825;28;20483;-82
2022/08/18 01:43:45;;;;;;;9.20;6.45;;;;;;;;;;5003531;28;20023;-82
2022/08/18 01:46:11;;;;;;;7.65;6.13;;;;;;;;;;5003067;28;20023;-82
2022/08/18 01:48:37;;;;;;;8.50;7.07;;;;;;;;;;5015498;28;20037;-82
2022/08/18 01:51:05;;;;;;;8.25;5.97;;;;;;;;;;5012868;28;20093;-82
2022/08/18 01:53:31;;;;;;;7.78;5.90;;;;;;;;;;5012108;28;20034;-82
2022/08/18 01:55:57;;;;;;;8.57;6.03;;;;;;;;;;5006215;28;20091;-82
2022/08/18 01:58:26;;;;;;;8.48;6.22;;;;;;;;;;5012555;28;20029;-82
2022/08/18 02:00:56;;;;;;;9.15;6.43;;;;;;;;;;5011098;28;20022;-81
2022/08/18 02:03:25;;;;;;;8.95;6.43;;;;;;;;;;5013872;28;20047;-82
2022/08/18 02:05:55;;;;;;;8.57;6.43;;;;;;;;;;5011683;28;20026;-81
2022/08/18 02:08:22;;;;;;;8.65;6.20;;;;;;;;;;4998467;28;20108;-81
2022/08/18 02:10:48;;;;;;;8.00;6.20;;;;;;;;;;5013328;28;20029;-81
2022/08/18 02:13:14;;;;;;;9.82;6.78;;;;;;;;;;5018140;28;20018;-81
2022/08/18 02:15:41;;;;;;;8.43;6.43;;;;;;;;;;5029002;28;20033;-81
2022/08/18 02:18:12;;;;;;;8.35;6.55;;;;;;;;;;5010277;28;20026;-81
2022/08/18 02:20:38;;;;;;;8.68;6.97;;;;;;;;;;5004193;28;20054;-81
2022/08/18 02:23:04;;;;;;;7.90;6.40;;;;;;;;;;4992973;28;20023;-82
2022/08/18 02:25:30;;;;;;;8.40;6.47;;;;;;;;;;4995675;28;20298;-81
2022/08/18 02:27:56;;;;;;;8.80;6.55;;;;;;;;;;5011410;28;20315;-82
2022/08/18 02:30:23;;;;;;;9.40;6.80;;;;;;;;;;5011934;28;20508;-81
2022/08/18 02:32:49;;;;;;;9.20;6.82;;;;;;;;;;5005598;28;20062;-82
2022/08/18 02:35:15;;;;;;;9.15;6.25;;;;;;;;;;4993301;28;20453;-81
2022/08/18 02:37:46;;;;;;;10.25;6.32;;;;;;;;;;5004733;28;20026;-81
2022/08/18 02:40:13;;;;;;;9.68;6.72;;;;;;;;;;5012990;28;20026;-82
2022/08/18 02:42:39;;;;;;;8.20;6.80;;;;;;;;;;4998610;28;20094;-82
2022/08/18 02:45:06;;;;;;;8.93;6.72;;;;;;;;;;4998535;28;20026;-82
2022/08/18 02:47:33;;;;;;;8.40;6.28;;;;;;;;;;5012225;28;20022;-82
2022/08/18 02:49:59;;;;;;;9.32;7.18;;;;;;;;;;5012676;28;20090;-82
2022/08/18 02:52:31;;;;;;;8.32;6.97;;;;;;;;;;5006976;28;20034;-82
2022/08/18 02:55:00;;;;;;;9.40;6.45;;;;;;;;;;5012629;28;20030;-82
2022/08/18 02:57:26;;;;;;;8.23;6.30;;;;;;;;;;5006013;28;20026;-81
2022/08/18 02:59:53;;;;;;;10.88;7.53;;;;;;;;;;5003099;28;20094;-81
2022/08/18 03:02:19;;;;;;;10.85;7.15;;;;;;;;;;5008782;28;20059;-82
2022/08/18 03:04:46;;;;;;;8.55;6.75;;;;;;;;;;5013007;28;20061;-81
2022/08/18 03:07:13;;;;;;;10.48;7.38;;;;;;;;;;5013512;28;20072;-82
2022/08/18 03:09:40;;;;;;;9.43;6.38;;;;;;;;;;5011833;28;20018;-81
2022/08/18 03:12:06;;;;;;;8.95;7.28;;;;;;;;;;5011412;28;20117;-82
2022/08/18 03:14:32;;;;;;;9.30;7.30;;;;;;;;;;5013134;28;20045;-82
2022/08/18 03:16:58;;;;;;;7.70;6.25;;;;;;;;;;5013856;28;20074;-82
2022/08/18 03:19:28;;;;;;;8.23;6.72;;;;;;;;;;5012603;28;20030;-81
2022/08/18 03:21:54;;;;;;;9.02;6.93;;;;;;;;;;5010800;28;20034;-81
2022/08/18 03:24:21;;;;;;;9.02;7.57;;;;;;;;;;5013198;28;20054;-81
2022/08/18 03:26:47;;;;;;;8.38;6.97;;;;;;;;;;5012373;28;20031;-81
2022/08/18 03:29:14;;;;;;;9.85;6.70;;;;;;;;;;5012498;28;20541;-82
2022/08/18 03:31:42;;;;;;;10.18;7.07;;;;;;;;;;5011232;28;20026;-81
2022/08/18 03:34:08;;;;;;;9.50;6.80;;;;;;;;;;5012024;28;20077;-81
2022/08/18 03:36:35;;;;;;;10.93;7.60;;;;;;;;;;5012193;28;20088;-81
2022/08/18 03:39:03;;;;;;;10.25;8.07;;;;;;;;;;5010249;28;20017;-81
2022/08/18 03:41:30;;;;;;;9.98;7.75;;;;;;;;;;5013221;28;20033;-81
2022/08/18 03:43:56;;;;;;;8.90;6.68;;;;;;;;;;5011730;28;20430;-82
2022/08/18 03:46:23;;;;;;;11.07;7.13;;;;;;;;;;5011583;28;20033;-81
2022/08/18 03:48:52;;;;;;;9.32;7.10;;;;;;;;;;4997971;28;20662;-81
2022/08/18 03:51:24;;;;;;;11.68;7.93;;;;;;;;;;4988771;28;20023;-81
2022/08/18 03:53:51;;;;;;;10.27;7.63;;;;;;;;;;4997932;28;20065;-81
2022/08/18 03:56:18;;;;;;;11.25;7.70;;;;;;;;;;4993737;28;20574;-81
2022/08/18 03:58:46;;;;;;;10.30;7.93;;;;;;;;;;4990295;28;20030;-82
2022/08/18 04:01:14;;;;;;;11.38;7.38;;;;;;;;;;4987385;28;20034;-82
2022/08/18 04:03:42;;;;;;;10.73;7.30;;;;;;;;;;4987775;28;20038;-82
2022/08/18 04:06:08;;;;;;;10.15;7.55;;;;;;;;;;4997932;28;20027;-82
2022/08/18 04:08:34;;;;;;;11.30;7.68;;;;;;;;;;5004871;28;20034;-81
2022/08/18 04:11:00;;;;;;;11.55;8.18;;;;;;;;;;4998226;28;20375;-81
2022/08/18 04:13:26;;;;;;;10.52;7.50;;;;;;;;;;4995924;28;20023;-81
2022/08/18 04:15:52;;;;;;;9.00;7.38;;;;;;;;;;4998151;28;20306;-82
2022/08/18 04:18:18;;;;;;;12.60;8.05;;;;;;;;;;4996423;28;20463;-83
2022/08/18 04:20:45;;;;;;;10.18;8.02;;;;;;;;;;4997201;28;20018;-82
2022/08/18 04:23:13;;;;;;;11.35;7.80;;;;;;;;;;5000171;28;20030;-82
2022/08/18 04:25:39;;;;;;;12.10;7.50;;;;;;;;;;4998881;28;20018;-82
2022/08/18 04:28:05;;;;;;;9.85;7.40;;;;;;;;;;4997247;28;20088;-82
2022/08/18 04:30:31;;;;;;;10.90;8.27;;;;;;;;;;4997899;28;20033;-82
2022/08/18 04:32:57;;;;;;;12.65;8.73;;;;;;;;;;4997481;28;20444;-82
2022/08/18 04:35:23;;;;;;;14.10;8.27;;;;;;;;;;4997264;28;20038;-82
2022/08/18 04:37:49;;;;;;;12.52;7.78;;;;;;;;;;4996604;28;20036;-82
2022/08/18 04:40:15;;;;;;;12.32;8.32;;;;;;;;;;4996823;28;20086;-82
2022/08/18 04:42:42;;;;;;;15.30;8.43;;;;;;;;;;4989124;28;20014;-83
2022/08/18 04:45:09;;;;;;;12.23;7.93;;;;;;;;;;4996487;28;20080;-82
2022/08/18 04:47:35;;;;;;;13.07;8.73;;;;;;;;;;4980821;28;20114;-82
2022/08/18 04:50:01;;;;;;;14.77;8.35;;;;;;;;;;4989037;28;20027;-82
2022/08/18 04:55:12;;;;;;;12.75;8.50;;;;;;;;;;4998708;28;20109;-82
2022/08/18 04:57:38;;;;;;;10.82;8.13;;;;;;;;;;5006299;28;20088;-82
2022/08/18 05:00:06;;;;;;;13.07;8.27;;;;;;;;;;5007045;28;20045;-83
2022/08/18 05:02:32;;;;;;;11.48;8.18;;;;;;;;;;5003176;28;20022;-83
2022/08/18 05:05:00;;;;;;;12.20;8.43;;;;;;;;;;5006260;28;21339;-82
2022/08/18 05:07:26;;;;;;;13.35;8.13;;;;;;;;;;4989599;28;20027;-84
2022/08/18 05:09:53;;;;;;;9.82;7.55;;;;;;;;;;5002309;28;20030;-83
2022/08/18 05:12:20;;;;;;;11.10;8.20;;;;;;;;;;5001754;28;20085;-83
2022/08/18 05:14:46;;;;;;;11.02;8.55;;;;;;;;;;4998808;28;20034;-83
2022/08/18 05:17:13;;;;;;;11.18;8.05;;;;;;;;;;4997101;28;20042;-83
2022/08/18 05:19:42;;;;;;;10.93;7.78;;;;;;;;;;5002280;28;20048;-83
2022/08/18 05:22:09;;;;;;;10.55;8.15;;;;;;;;;;4996001;28;20051;-83
2022/08/18 05:24:35;;;;;;;11.00;8.18;;;;;;;;;;4990670;28;20038;-83
2022/08/18 05:27:02;;;;;;;11.13;8.43;;;;;;;;;;4999130;28;20447;-83
2022/08/18 05:29:35;;;;;;;9.88;8.20;;;;;;;;;;4998467;28;20026;-82
2022/08/18 05:32:03;;;;;;;15.13;9.23;;;;;;;;;;5000002;28;20018;-82
2022/08/18 05:34:29;;;;;;;12.48;9.30;;;;;;;;;;4999165;28;20049;-81
2022/08/18 05:37:05;;;;;;;11.65;8.65;;;;;;;;;;4990655;28;20046;-82
2022/08/18 05:39:54;;;;;;;13.35;8.93;;;;;;;;;;5002648;28;20118;-83
2022/08/18 05:42:21;;;;;;;10.48;8.05;;;;;;;;;;5000819;28;20041;-83
2022/08/18 05:44:52;;;;;;;10.35;8.23;;;;;;;;;;5000521;28;20054;-83
2022/08/18 05:47:22;;;;;;;11.85;8.77;;;;;;;;;;5005504;28;20034;-83
2022/08/18 05:49:48;;;;;;;12.30;9.38;;;;;;;;;;4994122;28;20086;-82
2022/08/18 05:52:38;;;;;;;12.63;9.65;;;;;;;;;;5001235;28;20450;-82
2022/08/18 05:58:04;;;;;;;16.33;9.13;;;;;;;;;;4994708;28;20033;-83
2022/08/18 06:00:32;;;;;;;14.25;9.05;;;;;;;;;;5005063;28;20023;-82
2022/08/18 06:03:07;;;;;;;12.10;9.23;;;;;;;;;;5000014;28;20035;-82
2022/08/18 06:05:40;;;;;;;13.70;8.73;;;;;;;;;;4997530;28;20038;-81
2022/08/18 06:08:10;;;;;;;16.02;9.45;;;;;;;;;;5001526;28;20026;-81
2022/08/18 06:10:37;;;;;;;12.90;8.75;;;;;;;;;;5000692;28;20109;-82
2022/08/18 06:13:04;;;;;;;15.07;9.13;;;;;;;;;;4997491;28;20030;-82
2022/08/18 06:15:36;;;;;;;12.05;8.65;;;;;;;;;;4987393;28;20089;-82
2022/08/18 06:18:20;;;;;;;11.65;8.80;;;;;;;;;;4993979;28;20019;-81
2022/08/18 06:20:52;;;;;;;12.13;8.45;;;;;;;;;;4996314;28;20030;-81
2022/08/18 06:23:37;;;;;;;12.23;8.50;;;;;;;;;;4995008;28;20030;-81
2022/08/18 06:26:13;;;;;;;11.93;8.27;;;;;;;;;;4988107;28;20035;-83
2022/08/18 06:28:51;;;;;;;11.30;8.10;;;;;;;;;;5002818;28;20090;-82
2022/08/18 06:31:26;;;;;;;12.77;7.70;;;;;;;;;;5003229;28;20054;-81
2022/08/18 06:34:02;;;;;;;12.48;8.15;;;;;;;;;;5003476;28;20078;-82
2022/08/18 06:36:37;;;;;;;12.02;7.68;;;;;;;;;;5001717;28;20032;-82
2022/08/18 06:39:11;;;;;;;13.02;9.20;;;;;;;;;;5002732;28;20026;-83
2022/08/18 06:41:48;;;;;;;11.18;7.85;;;;;;;;;;5000333;28;20025;-81
2022/08/18 06:44:20;;;;;;;12.88;8.40;;;;;;;;;;5002117;28;20027;-81
2022/08/18 06:47:03;;;;;;;9.98;7.80;;;;;;;;;;4995803;28;20039;-82
2022/08/18 06:49:45;;;;;;;11.73;8.05;;;;;;;;;;5002219;28;20046;-82
2022/08/18 06:52:32;;;;;;;9.95;7.60;;;;;;;;;;5001706;28;20048;-81
2022/08/18 06:55:18;;;;;;;11.52;8.15;;;;;;;;;;5009399;28;20038;-82
2022/08/18 06:58:02;;;;;;;11.75;7.85;;;;;;;;;;5002451;28;20039;-81
2022/08/18 07:00:30;;;;;;;12.23;7.90;;;;;;;;;;4999624;28;20029;-82
2022/08/18 07:02:57;;;;;;;13.85;8.07;;;;;;;;;;4987598;28;20027;-82
2022/08/18 07:05:26;;;;;;;10.52;7.15;;;;;;;;;;5002279;28;20457;-82
2022/08/18 07:08:06;;;;;;;13.20;7.60;;;;;;;;;;4999477;28;20041;-81
2022/08/18 07:10:34;;;;;;;10.40;8.68;;;;;;;;;;4988480;28;20569;-82
2022/08/18 07:13:07;;;;;;;10.85;7.25;;;;;;;;;;5001517;28;20034;-80
2022/08/18 07:15:33;;;;;;;12.52;8.50;;;;;;;;;;5002125;28;20033;-82
2022/08/18 07:18:03;;;;;;;11.73;8.23;;;;;;;;;;5001525;28;20030;-80
2022/08/18 07:20:30;;;;;;;10.68;8.38;;;;;;;;;;4999979;28;20482;-81
2022/08/18 07:23:03;;;;;;;12.02;7.97;;;;;;;;;;4998929;28;20018;-81
2022/08/18 07:25:38;;;;;;;9.65;7.78;;;;;;;;;;4998390;28;20023;-82
2022/08/18 07:28:04;;;;;;;11.48;8.07;;;;;;;;;;5001646;28;20376;-82
2022/08/18 07:30:33;;;;;;;10.88;7.93;;;;;;;;;;5001360;28;20022;-82
2022/08/18 07:32:59;;;;;;;9.98;7.50;;;;;;;;;;5001456;28;20567;-83
2022/08/18 07:35:30;;;;;;;12.98;8.38;;;;;;;;;;5002224;28;20038;-81
2022/08/18 07:38:00;;;;;;;10.50;8.10;;;;;;;;;;5002608;28;20047;-81
2022/08/18 07:40:36;;;;;;;11.18;8.30;;;;;;;;;;4988901;28;20023;-81
2022/08/18 07:43:08;;;;;;;12.27;7.80;;;;;;;;;;5000609;28;20026;-81
2022/08/18 07:45:42;;;;;;;10.73;7.70;;;;;;;;;;4985244;28;20568;-83
2022/08/18 07:48:15;;;;;;;11.52;8.20;;;;;;;;;;4997805;28;20033;-82
2022/08/18 07:50:52;;;;;;;10.90;7.28;;;;;;;;;;4991492;28;20031;-82
2022/08/18 07:53:21;;;;;;;8.80;6.72;;;;;;;;;;4999504;28;20048;-81
2022/08/18 07:55:51;;;;;;;10.10;6.75;;;;;;;;;;4999949;28;20061;-82
2022/08/18 07:58:17;;;;;;;9.40;6.85;;;;;;;;;;4999903;28;20044;-82
2022/08/18 08:00:51;;;;;;;10.95;7.15;;;;;;;;;;5000519;28;20018;-81
2022/08/18 08:03:36;;;;;;;9.30;7.20;;;;;;;;;;4999759;28;20482;-81
2022/08/18 08:06:12;;;;;;;10.07;7.22;;;;;;;;;;5000031;28;20365;-81
2022/08/18 08:08:44;;;;;;;8.98;6.78;;;;;;;;;;4996240;28;20142;-81
2022/08/18 08:11:10;;;;;;;;;;;;;;;;;;4997766;28;20049;-81
2022/08/18 08:13:37;;;;;;;12.85;7.78;;;;;;;;;;4999079;28;20369;-81
2022/08/18 08:16:06;;;;;;;12.48;7.38;;;;;;;;;;4999001;28;20026;-82
2022/08/18 08:18:35;;;;;;;9.18;6.95;;;;;;;;;;4997849;28;20022;-81
2022/08/18 08:21:04;;;;;;;10.05;6.80;;;;;;;;;;4999804;28;20032;-81
2022/08/18 08:23:43;;;;;;;9.70;6.90;;;;;;;;;;4998867;28;20390;-81
2022/08/18 08:26:24;;;;;;;9.30;7.20;;;;;;;;;;4999372;28;20019;-81
2022/08/18 08:29:06;;;;;;;11.57;7.50;;;;;;;;;;4998646;28;20049;-81
2022/08/18 08:31:41;;;;;;;10.15;7.32;;;;;;;;;;4998553;28;20025;-81
2022/08/18 08:34:07;;;;;;;10.02;7.50;;;;;;;;;;4996979;28;20074;-82
2022/08/18 08:36:35;;;;;;;9.93;8.27;;;;;;;;;;4997847;28;20367;-81
2022/08/18 08:39:04;;;;;;;12.40;7.38;;;;;;;;;;4995917;28;20053;-81
2022/08/18 08:41:33;;;;;;;13.68;7.90;;;;;;;;;;4998204;28;20231;-81
2022/08/18 08:44:11;;;;;;;8.77;7.40;;;;;;;;;;4997874;28;20027;-81
2022/08/18 08:46:49;;;;;;;11.30;7.72;;;;;;;;;;4990997;28;20026;-80
2022/08/18 08:49:25;;;;;;;10.40;7.20;;;;;;;;;;4994717;28;20085;-80
2022/08/18 08:51:56;;;;;;;8.70;7.47;;;;;;;;;;4991452;28;20030;-81
2022/08/18 08:54:29;;;;;;;9.02;7.55;;;;;;;;;;4997380;28;20022;-82
2022/08/18 08:56:57;;;;;;;10.23;7.53;;;;;;;;;;4998104;28;20491;-81
2022/08/18 08:59:24;;;;;;;10.05;7.88;;;;;;;;;;4997684;28;20029;-82
2022/08/18 09:02:09;;;;;;;9.98;7.28;;;;;;;;;;4995412;28;20592;-81
2022/08/18 09:04:44;;;;;;;11.15;7.60;;;;;;;;;;4999726;28;20018;-81
2022/08/18 09:07:13;;;;;;;9.45;7.75;;;;;;;;;;4998347;28;20037;-80
2022/08/18 09:09:48;;;;;;;8.88;7.20;;;;;;;;;;4999667;28;20038;-81
2022/08/18 09:12:46;;;;;;;11.63;8.05;;;;;;;;;;4998768;28;20491;-80
2022/08/18 09:15:20;;;;;;;11.38;7.55;;;;;;;;;;4918687;29;20171;-81
2022/08/18 09:17:49;;;;;;;11.68;7.40;;;;;;;;;;4915036;29;20083;-81
2022/08/18 09:20:41;;;;;;;10.68;8.05;;;;;;;;;;4918200;29;20080;-80
2022/08/18 09:23:10;;;;;;;9.95;7.50;;;;;;;;;;4890104;29;20072;-80
2022/08/18 09:25:40;;;;;;;9.68;7.20;;;;;;;;;;4900683;29;20048;-81
2022/08/18 09:28:15;;;;;;;9.25;7.78;;;;;;;;;;4906086;29;20036;-81
2022/08/18 09:30:53;;;;;;;10.82;7.93;;;;;;;;;;4919855;29;20527;-80
2022/08/18 09:33:19;;;;;;;11.27;7.35;;;;;;;;;;4919336;29;20045;-82
2022/08/18 09:35:59;;;;;;;10.05;7.18;;;;;;;;;;4914642;29;20040;-81
2022/08/18 09:41:32;;;;;;;10.13;7.43;;;;;;;;;;4919612;29;20042;-82
2022/08/18 09:44:10;;;;;;;10.60;7.18;;;;;;;;;;4902723;29;20070;-80
2022/08/18 09:46:42;;;;;;;9.25;6.70;;;;;;;;;;4913949;29;20560;-79
2022/08/18 09:49:37;;;;;;;10.30;7.30;;;;;;;;;;4906640;29;20119;-80
2022/08/18 09:52:22;;;;;;;8.75;7.25;;;;;;;;;;4977512;28;20069;-79
2022/08/18 09:54:51;;;;;;;12.50;6.60;;;;;;;;;;4991060;28;20031;-82
2022/08/18 09:57:20;;;;;;;8.10;6.15;;;;;;;;;;4992362;28;20027;-81
2022/08/18 09:59:49;;;;;;;9.27;6.53;;;;;;;;;;4995741;28;20061;-80
2022/08/18 10:02:27;;;;;;;11.05;7.35;;;;;;;;;;4997558;28;20049;-80
2022/08/18 10:05:19;;;;;;;10.10;6.20;;;;;;;;;;4999592;28;20034;-81
2022/08/18 10:07:45;;;;;;;;;;;;;;;;;;4996556;28;20398;-80
2022/08/18 10:10:27;;;;;;;9.65;6.47;;;;;;;;;;4989209;28;19910;-82
2022/08/18 10:12:56;;;;;;;11.05;6.78;;;;;;;;;;4999006;28;20553;-81
2022/08/18 10:15:37;;;;;;;10.15;6.93;;;;;;;;;;4999291;28;20062;-82
2022/08/18 10:18:10;;;;;;;11.13;7.35;;;;;;;;;;4989764;28;20092;-82
2022/08/18 10:20:47;;;;;;;8.73;6.47;;;;;;;;;;4999639;28;20082;-81
2022/08/18 10:23:33;;;;;;;8.80;5.95;;;;;;;;;;4993283;28;20023;-81
2022/08/18 10:25:59;;;;;;;8.55;6.50;;;;;;;;;;5001269;28;20049;-80
2022/08/18 10:28:47;;;;;;;11.48;6.68;;;;;;;;;;4999527;28;20058;-81
2022/08/18 10:31:13;;;;;;;12.73;7.18;;;;;;;;;;4989497;28;20098;-80
2022/08/18 10:33:58;;;;;;;12.02;6.15;;;;;;;;;;4989544;28;20510;-81
2022/08/18 10:36:36;;;;;;;8.35;6.07;;;;;;;;;;5002390;28;20070;-79
2022/08/18 10:39:06;;;;;;;9.77;6.20;;;;;;;;;;5000288;28;20379;-82
2022/08/18 10:41:33;;;;;;;13.82;6.78;;;;;;;;;;5000460;28;20030;-81
2022/08/18 10:44:01;;;;;;;9.70;5.95;;;;;;;;;;4996390;28;20096;-81
2022/08/18 10:46:37;;;;;;;8.98;6.07;;;;;;;;;;5000553;28;20552;-81
2022/08/18 10:49:12;;;;;;;9.43;6.07;;;;;;;;;;5000010;28;20057;-81
2022/08/18 10:51:38;;;;;;;9.98;6.07;;;;;;;;;;5000238;28;20030;-80
2022/08/18 10:54:29;;;;;;;9.25;6.35;;;;;;;;;;4999919;28;20031;-80
2022/08/18 10:57:15;;;;;;;9.70;5.88;;;;;;;;;;4996388;28;20033;-80
2022/08/18 10:59:46;;;;;;;8.63;6.30;;;;;;;;;;5000191;28;20450;-80
2022/08/18 11:02:30;;;;;;;8.48;6.10;;;;;;;;;;4999583;28;20029;-81
2022/08/18 11:04:57;;;;;;;9.40;6.22;;;;;;;;;;4988761;28;20034;-81
2022/08/18 11:07:24;;;;;;;9.90;6.45;;;;;;;;;;4981848;28;20050;-80
2022/08/18 11:09:52;;;;;;;8.65;5.78;;;;;;;;;;4995937;28;20117;-81
2022/08/18 11:12:36;;;;;;;10.38;5.78;;;;;;;;;;4989477;28;20030;-81
2022/08/18 11:15:24;;;;;;;8.13;6.13;;;;;;;;;;4998660;28;20041;-81
2022/08/18 11:17:55;;;;;;;8.52;6.25;;;;;;;;;;4998414;28;20018;-80
2022/08/18 11:20:23;;;;;;;9.52;5.43;;;;;;;;;;4998206;28;20034;-80
2022/08/18 11:22:50;;;;;;;9.18;5.90;;;;;;;;;;4995769;28;20121;-80
2022/08/18 11:25:20;;;;;;;8.15;5.88;;;;;;;;;;4998244;28;20114;-81
2022/08/18 11:27:47;;;;;;;9.93;6.07;;;;;;;;;;5001185;28;20030;-80
2022/08/18 11:30:13;;;;;;;8.80;5.93;;;;;;;;;;5001950;28;20030;-80
2022/08/18 11:32:40;;;;;;;9.73;6.13;;;;;;;;;;4985863;28;20027;-81
2022/08/18 11:35:09;;;;;;;8.77;6.07;;;;;;;;;;4998703;28;20042;-85
2022/08/18 11:37:45;;;;;;;8.60;5.65;;;;;;;;;;4998945;28;20030;-83
2022/08/18 11:40:23;;;;;;;8.30;5.95;;;;;;;;;;4987600;28;20030;-82
2022/08/18 11:43:01;;;;;;;9.13;5.88;;;;;;;;;;4997650;28;20472;-82
2022/08/18 11:45:31;;;;;;;14.82;6.20;;;;;;;;;;5002511;28;20027;-85
2022/08/18 11:48:17;;;;;;;7.22;5.55;;;;;;;;;;5002859;28;20046;-82
2022/08/18 11:50:48;;;;;;;13.25;6.40;;;;;;;;;;4999269;28;20018;-80
2022/08/18 11:53:21;;;;;;;10.03;6.20;;;;;;;;;;4994698;28;20098;-83
2022/08/18 11:56:02;;;;;;;14.95;6.55;;;;;;;;;;5000557;28;20326;-82
2022/08/18 11:58:37;;;;;;;8.52;5.78;;;;;;;;;;4988248;28;20074;-82
2022/08/18 12:01:03;;;;;;;9.02;5.45;;;;;;;;;;4998720;28;20076;-80
2022/08/18 12:03:43;;;;;;;8.00;5.88;;;;;;;;;;5000876;28;20523;-81
2022/08/18 12:06:18;;;;;;;9.27;6.00;;;;;;;;;;4984995;28;20027;-82
2022/08/18 12:08:54;;;;;;;9.40;7.45;;;;;;;;;;4993062;28;20030;-82
2022/08/18 12:11:21;;;;;;;9.45;6.40;;;;;;;;;;5006392;28;20097;-82
2022/08/18 12:13:56;;;;;;;9.40;7.18;;;;;;;;;;5007866;28;20036;-80
2022/08/18 12:16:33;;;;;;;10.10;8.25;;;;;;;;;;5008059;28;20027;-81
2022/08/18 12:19:00;;;;;;;10.13;8.35;;;;;;;;;;5005047;28;20341;-80
2022/08/18 12:21:26;;;;;;;10.98;5.82;;;;;;;;;;5007998;28;20066;-82
2022/08/18 12:23:52;;;;;;;8.20;7.38;;;;;;;;;;4990133;28;20045;-81
2022/08/18 12:26:19;;;;;;;12.90;11.77;;;;;;;;;;5001718;28;20080;-81
2022/08/18 12:28:45;;;;;;;9.60;8.70;;;;;;;;;;5007575;28;20022;-82
2022/08/18 12:31:11;;;;;;;8.27;7.35;;;;;;;;;;5003739;28;20097;-82
2022/08/18 12:33:37;;;;;;;9.95;7.85;;;;;;;;;;5002384;28;20022;-83
2022/08/18 12:36:04;;;;;;;11.18;10.18;;;;;;;;;;5003343;28;20041;-82
2022/08/18 12:38:31;;;;;;;14.15;12.70;;;;;;;;;;5003618;28;20291;-80
2022/08/18 12:40:58;;;;;;;12.82;11.60;;;;;;;;;;4996612;28;20031;-81
2022/08/18 12:43:24;;;;;;;15.23;11.23;;;;;;;;;;4997391;28;20026;-81
2022/08/18 12:45:50;;;;;;;29.38;27.10;;;;;;;;;;4997869;28;20031;-82
2022/08/18 12:48:16;;;;;;;16.25;14.70;;;;;;;;;;5006863;28;20092;-82
2022/08/18 12:50:43;;;;;;;15.30;14.02;;;;;;;;;;4999145;28;20026;-80
2022/08/18 12:53:09;;;;;;;14.38;13.27;;;;;;;;;;5001016;28;20113;-82
2022/08/18 12:55:36;;;;;;;14.45;13.18;;;;;;;;;;4998076;28;20486;-82
2022/08/18 12:58:04;;;;;;;15.85;14.63;;;;;;;;;;5002366;28;20030;-80
2022/08/18 13:00:30;;;;;;;16.95;15.43;;;;;;;;;;5000698;28;20049;-81
2022/08/18 13:02:56;;;;;;;23.13;21.48;;;;;;;;;;5000579;28;20082;-82
2022/08/18 13:05:22;;;;;;;14.73;13.55;;;;;;;;;;5002019;28;20030;-82
2022/08/18 13:07:48;;;;;;;14.15;12.70;;;;;;;;;;5006535;28;20022;-83
2022/08/18 13:10:14;;;;;;;15.57;14.18;;;;;;;;;;5003924;28;20531;-82
2022/08/18 13:12:40;;;;;;;16.50;15.20;;;;;;;;;;5005850;28;20050;-82
2022/08/18 13:15:07;;;;;;;12.65;11.48;;;;;;;;;;5005387;28;20094;-82
2022/08/18 13:17:34;;;;;;;22.65;21.05;;;;;;;;;;5003303;28;20039;-82
2022/08/18 13:20:01;;;;;;;14.52;13.20;;;;;;;;;;5004933;28;20022;-82
2022/08/18 13:22:28;;;;;;;13.20;11.90;;;;;;;;;;4998995;28;20110;-83
2022/08/18 13:24:55;;;;;;;15.20;14.02;;;;;;;;;;4999432;28;20030;-81
2022/08/18 13:27:21;;;;;;;15.15;14.02;;;;;;;;;;5002769;28;20057;-81
2022/08/18 13:29:47;;;;;;;13.48;12.38;;;;;;;;;;4995038;28;20026;-80
2022/08/18 13:32:14;;;;;;;15.95;14.68;;;;;;;;;;4996357;28;20045;-85
2022/08/18 13:34:40;;;;;;;15.07;13.85;;;;;;;;;;4995324;28;20046;-81
2022/08/18 13:37:06;;;;;;;14.68;13.45;;;;;;;;;;4999536;28;20031;-82
2022/08/18 13:39:32;;;;;;;16.45;15.02;;;;;;;;;;4996400;28;20088;-83
2022/08/18 13:42:00;;;;;;;15.38;14.23;;;;;;;;;;4998209;28;20039;-83
2022/08/18 13:44:27;;;;;;;16.65;15.38;;;;;;;;;;4999017;28;20031;-83
2022/08/18 13:46:54;;;;;;;17.90;16.58;;;;;;;;;;4998719;28;20030;-83
2022/08/18 13:49:22;;;;;;;23.67;22.25;;;;;;;;;;4999874;28;20053;-83
2022/08/18 13:51:50;;;;;;;31.80;30.00;;;;;;;;;;4999363;28;20140;-81
2022/08/18 13:54:19;;;;;;;29.00;27.05;;;;;;;;;;4998028;28;21457;-83
2022/08/18 13:56:46;;;;;;;27.35;25.63;;;;;;;;;;5004337;28;20031;-82
2022/08/18 13:59:12;;;;;;;25.67;24.35;;;;;;;;;;4996395;28;20035;-84
2022/08/18 14:01:39;;;;;;;30.17;28.63;;;;;;;;;;4997895;28;20042;-83
2022/08/18 14:04:06;;;;;;;36.33;34.05;;;;;;;;;;4998449;28;20054;-82
2022/08/18 14:06:32;;;;;;;32.78;30.90;;;;;;;;;;4999486;28;20030;-82
2022/08/18 14:08:58;;;;;;;27.13;25.65;;;;;;;;;;4997535;28;20030;-81
2022/08/18 14:11:28;;;;;;;41.03;38.95;;;;;;;;;;4989088;28;20037;-83
2022/08/18 14:13:54;;;;;;;34.58;32.72;;;;;;;;;;4994334;28;20027;-82
2022/08/18 14:16:21;;;;;;;32.95;30.98;;;;;;;;;;4998724;28;20149;-80
2022/08/18 14:26:47;;;;;;;46.92;44.65;;;;;;;;;;4999665;28;20085;-81
2022/08/18 14:27:04;;;;;;;39.95;37.80;;;;;;;;;;5004361;28;20111;-82
2022/08/18 14:29:31;;;;;;;29.42;27.70;;;;;;;;;;4998911;28;20497;-82
2022/08/18 14:31:57;;;;;;;45.35;43.30;;;;;;;;;;5003126;28;20030;-81
2022/08/18 14:34:23;;;;;;;55.80;53.17;;;;;;;;;;5002130;28;20042;-82
2022/08/18 14:36:49;;;;;;;39.92;37.80;;;;;;;;;;5003436;28;20026;-82
2022/08/18 14:39:15;;;;;;;79.10;75.18;;;;;;;;;;5002665;28;20029;-81
2022/08/18 14:41:41;;;;;;;47.25;44.80;;;;;;;;;;5006219;28;20082;-83
2022/08/18 14:44:08;;;;;;;30.33;28.55;;;;;;;;;;5006860;28;20526;-82
2022/08/18 14:46:34;;;;;;;31.08;29.10;;;;;;;;;;5002281;28;20022;-79
2022/08/18 14:49:00;;;;;;;24.50;22.90;;;;;;;;;;5007499;28;20095;-81
2022/08/18 14:51:26;;;;;;;31.80;30.13;;;;;;;;;;5001693;28;20046;-83
2022/08/18 14:53:52;;;;;;;28.05;26.25;;;;;;;;;;5005842;28;20038;-83
2022/08/18 14:56:18;;;;;;;47.83;45.30;;;;;;;;;;5002691;28;20057;-82
2022/08/18 14:58:44;;;;;;;29.80;28.15;;;;;;;;;;5005103;28;20031;-83
2022/08/18 15:01:12;;;;;;;30.70;28.95;;;;;;;;;;5002585;28;20025;-82
2022/08/18 15:03:38;;;;;;;35.90;33.85;;;;;;;;;;5006900;28;20083;-82
2022/08/18 15:06:05;;;;;;;24.73;23.35;;;;;;;;;;5001050;28;20114;-81
2022/08/18 15:08:31;;;;;;;20.80;19.50;;;;;;;;;;5004399;28;20041;-82
2022/08/18 15:10:57;;;;;;;27.48;25.98;;;;;;;;;;4991030;28;21413;-82